createdAt,value
2023-05-05T00:00:19.177Z,249.54
2023-05-05T00:01:19.187Z,249.25
2023-05-05T00:02:19.245Z,248.65
2023-05-05T00:03:19.282Z,248.27
2023-05-05T00:04:19.287Z,248.29
2023-05-05T00:05:19.243Z,249.01
2023-05-05T00:06:19.248Z,248.72
2023-05-05T00:07:19.255Z,249.16
2023-05-05T00:08:19.289Z,248.67
2023-05-05T00:09:19.333Z,248.92
2023-05-05T00:10:19.391Z,248.81
2023-05-05T00:11:19.349Z,248.80
2023-05-05T00:12:19.402Z,248.91
2023-05-05T00:13:19.418Z,248.75
2023-05-05T00:14:19.421Z,248.26
2023-05-05T00:15:19.473Z,248.73
2023-05-05T00:16:19.543Z,248.44
2023-05-05T00:17:19.555Z,248.81
2023-05-05T00:18:19.494Z,250.00
2023-05-05T00:19:19.546Z,248.98
2023-05-05T00:20:19.567Z,248.98
2023-05-05T00:21:19.688Z,248.14
2023-05-05T00:22:19.599Z,248.86
2023-05-05T00:23:19.639Z,249.22
2023-05-05T00:24:19.642Z,249.16
2023-05-05T00:25:19.655Z,248.62
2023-05-05T00:26:19.710Z,250.00
2023-05-05T00:27:19.697Z,249.11
2023-05-05T00:28:19.728Z,248.20
2023-05-05T00:29:19.781Z,248.77
2023-05-05T00:30:19.792Z,248.19
2023-05-05T00:31:19.872Z,248.74
2023-05-05T00:32:19.861Z,248.82
2023-05-05T00:33:19.863Z,248.17
2023-05-05T00:34:19.884Z,249.77
2023-05-05T00:35:19.937Z,249.22
2023-05-05T00:36:19.905Z,249.09
2023-05-05T00:37:19.924Z,249.02
2023-05-05T00:38:19.960Z,249.00
2023-05-05T00:39:20.012Z,249.22
2023-05-05T00:40:20.026Z,248.82
2023-05-05T00:41:20.025Z,248.82
2023-05-05T00:42:20.040Z,248.63
2023-05-05T00:43:20.058Z,248.27
2023-05-05T00:44:20.144Z,248.68
2023-05-05T00:45:20.170Z,248.80
2023-05-05T00:46:20.211Z,247.76
2023-05-05T00:47:20.136Z,248.06
2023-05-05T00:48:20.189Z,249.61
2023-05-05T00:49:20.206Z,248.73
2023-05-05T00:50:20.235Z,248.00
2023-05-05T00:51:20.253Z,248.74
2023-05-05T00:52:20.253Z,248.91
2023-05-05T00:53:20.312Z,249.25
2023-05-05T00:54:20.317Z,248.70
2023-05-05T00:55:20.339Z,248.94
2023-05-05T00:56:20.325Z,249.26
2023-05-05T00:57:20.383Z,248.86
2023-05-05T00:58:20.369Z,248.78
2023-05-05T00:59:20.436Z,249.24
2023-05-05T01:00:20.470Z,248.51
2023-05-05T01:01:20.501Z,248.73
2023-05-05T01:02:20.513Z,248.65
2023-05-05T01:03:20.608Z,249.20
2023-05-05T01:04:20.546Z,248.97
2023-05-05T01:05:20.594Z,249.57
2023-05-05T01:06:20.604Z,248.81
2023-05-05T01:07:20.601Z,249.07
2023-05-05T01:08:20.658Z,248.11
2023-05-05T01:09:20.645Z,248.89
2023-05-05T01:10:21.078Z,248.69
2023-05-05T01:11:20.799Z,248.68
2023-05-05T01:12:20.742Z,248.12
2023-05-05T01:13:20.775Z,248.24
2023-05-05T01:14:20.804Z,247.72
2023-05-05T01:15:20.821Z,248.05
2023-05-05T01:16:20.902Z,247.97
2023-05-05T01:17:20.886Z,248.47
2023-05-05T01:18:20.891Z,247.97
2023-05-05T01:19:20.933Z,247.93
2023-05-05T01:20:20.925Z,248.88
2023-05-05T01:21:21.493Z,247.69
2023-05-05T01:22:21.032Z,248.07
2023-05-05T01:23:21.021Z,248.20
2023-05-05T01:24:21.069Z,248.72
2023-05-05T01:25:21.087Z,248.12
2023-05-05T01:26:21.146Z,248.44
2023-05-05T01:27:21.166Z,248.41
2023-05-05T01:28:21.169Z,248.12
2023-05-05T01:29:21.159Z,248.33
2023-05-05T01:30:21.231Z,248.54
2023-05-05T01:31:21.311Z,248.35
2023-05-05T01:32:21.313Z,247.67
2023-05-05T01:33:21.322Z,247.50
2023-05-05T01:34:21.357Z,249.31
2023-05-05T01:35:21.362Z,248.73
2023-05-05T01:36:21.364Z,248.04
2023-05-05T01:37:21.399Z,248.08
2023-05-05T01:38:21.569Z,249.14
2023-05-05T01:39:21.461Z,248.31
2023-05-05T01:40:21.494Z,248.25
2023-05-05T01:41:21.545Z,248.59
2023-05-05T01:42:21.535Z,248.39
2023-05-05T01:43:21.572Z,248.08
2023-05-05T01:44:21.625Z,247.79
2023-05-05T01:45:21.603Z,249.23
2023-05-05T01:46:21.680Z,248.37
2023-05-05T01:47:21.703Z,248.86
2023-05-05T01:48:21.728Z,248.15
2023-05-05T01:49:21.728Z,249.00
2023-05-05T01:50:21.743Z,248.35
2023-05-05T01:51:21.768Z,248.11
2023-05-05T01:52:21.808Z,247.97
2023-05-05T01:53:21.891Z,248.77
2023-05-05T01:54:21.895Z,248.83
2023-05-05T01:55:21.925Z,247.39
2023-05-05T01:56:21.959Z,248.91
2023-05-05T01:57:21.982Z,247.73
2023-05-05T01:58:21.980Z,248.74
2023-05-05T01:59:22.024Z,248.42
2023-05-05T02:00:22.098Z,248.51
2023-05-05T02:01:22.113Z,247.72
2023-05-05T02:02:22.185Z,248.01
2023-05-05T02:03:22.301Z,248.95
2023-05-05T02:04:22.207Z,248.00
2023-05-05T02:05:22.242Z,247.75
2023-05-05T02:06:22.260Z,248.28
2023-05-05T02:07:22.292Z,247.80
2023-05-05T02:08:22.276Z,248.00
2023-05-05T02:09:22.336Z,248.42
2023-05-05T02:10:22.397Z,247.19
2023-05-05T02:11:22.377Z,248.14
2023-05-05T02:12:22.400Z,247.74
2023-05-05T02:13:22.502Z,248.11
2023-05-05T02:14:22.503Z,248.64
2023-05-05T02:15:22.568Z,247.65
2023-05-05T02:16:22.593Z,247.63
2023-05-05T02:17:22.686Z,248.07
2023-05-05T02:18:22.599Z,248.17
2023-05-05T02:19:22.639Z,248.04
2023-05-05T02:20:22.680Z,247.45
2023-05-05T02:21:22.769Z,247.88
2023-05-05T02:22:22.750Z,247.44
2023-05-05T02:23:22.736Z,246.98
2023-05-05T02:24:22.829Z,247.40
2023-05-05T02:25:22.835Z,248.40
2023-05-05T02:26:22.864Z,247.14
2023-05-05T02:27:22.998Z,246.66
2023-05-05T02:28:22.918Z,248.58
2023-05-05T02:29:22.968Z,248.34
2023-05-05T02:30:22.962Z,248.27
2023-05-05T02:31:23.091Z,248.51
2023-05-05T02:32:23.103Z,247.55
2023-05-05T02:33:23.081Z,248.76
2023-05-05T02:34:23.093Z,247.75
2023-05-05T02:35:23.116Z,248.66
2023-05-05T02:36:23.144Z,247.91
2023-05-05T02:37:23.226Z,248.12
2023-05-05T02:38:23.206Z,248.58
2023-05-05T02:39:23.287Z,248.30
2023-05-05T02:40:23.270Z,248.35
2023-05-05T02:41:23.315Z,247.54
2023-05-05T02:42:23.358Z,247.53
2023-05-05T02:43:23.396Z,248.43
2023-05-05T02:44:23.421Z,247.09
2023-05-05T02:45:23.464Z,248.12
2023-05-05T02:46:23.487Z,248.54
2023-05-05T02:47:23.535Z,247.94
2023-05-05T02:48:23.516Z,248.50
2023-05-05T02:49:23.576Z,248.05
2023-05-05T02:50:23.565Z,247.81
2023-05-05T02:51:23.640Z,249.69
2023-05-05T02:52:23.643Z,248.17
2023-05-05T02:53:23.644Z,247.66
2023-05-05T02:54:23.700Z,248.73
2023-05-05T02:55:23.771Z,248.36
2023-05-05T02:56:23.778Z,248.30
2023-05-05T02:57:23.813Z,249.95
2023-05-05T02:58:23.825Z,248.28
2023-05-05T02:59:23.888Z,247.95
2023-05-05T03:00:23.907Z,248.56
2023-05-05T03:01:23.929Z,248.85
2023-05-05T03:02:23.973Z,248.44
2023-05-05T03:03:24.101Z,248.40
2023-05-05T03:04:24.036Z,248.07
2023-05-05T03:05:24.089Z,247.70
2023-05-05T03:06:24.155Z,247.67
2023-05-05T03:07:24.224Z,247.53
2023-05-05T03:08:24.153Z,248.06
2023-05-05T03:09:24.222Z,248.09
2023-05-05T03:10:24.242Z,247.73
2023-05-05T03:11:24.271Z,247.60
2023-05-05T03:12:24.296Z,247.55
2023-05-05T03:13:24.317Z,248.23
2023-05-05T03:14:24.448Z,248.69
2023-05-05T03:15:24.410Z,247.84
2023-05-05T03:16:24.492Z,248.49
2023-05-05T03:17:24.597Z,248.20
2023-05-05T03:18:24.548Z,248.10
2023-05-05T03:19:24.671Z,247.42
2023-05-05T03:20:24.591Z,248.13
2023-05-05T03:21:24.763Z,246.94
2023-05-05T03:22:24.698Z,247.64
2023-05-05T03:23:24.705Z,248.60
2023-05-05T03:24:24.724Z,248.83
2023-05-05T03:25:24.782Z,247.16
2023-05-05T03:26:24.787Z,248.71
2023-05-05T03:27:24.839Z,248.08
2023-05-05T03:28:24.937Z,247.80
2023-05-05T03:29:24.912Z,248.28
2023-05-05T03:30:24.971Z,247.72
2023-05-05T03:31:25.068Z,248.63
2023-05-05T03:32:25.099Z,247.94
2023-05-05T03:33:25.102Z,248.43
2023-05-05T03:34:25.157Z,248.33
2023-05-05T03:35:25.218Z,247.74
2023-05-05T03:36:27.205Z,248.00
2023-05-05T03:37:25.237Z,248.84
2023-05-05T03:38:25.229Z,248.30
2023-05-05T03:39:25.229Z,248.06
2023-05-05T03:40:36.200Z,248.29
2023-05-05T03:41:26.227Z,248.38
2023-05-05T03:42:25.206Z,248.50
2023-05-05T03:43:25.215Z,248.25
2023-05-05T03:44:25.230Z,248.84
2023-05-05T03:45:25.204Z,248.74
2023-05-05T03:46:25.171Z,248.77
2023-05-05T03:47:25.162Z,248.79
2023-05-05T03:48:25.173Z,248.59
2023-05-05T03:49:25.145Z,248.12
2023-05-05T03:50:25.168Z,247.71
2023-05-05T03:51:25.129Z,248.78
2023-05-05T03:52:25.116Z,248.99
2023-05-05T03:53:25.134Z,247.83
2023-05-05T03:54:25.119Z,247.77
2023-05-05T03:55:25.173Z,248.59
2023-05-05T03:56:25.159Z,247.50
2023-05-05T03:57:25.196Z,247.33
2023-05-05T03:58:25.209Z,247.79
2023-05-05T03:59:25.266Z,248.74
2023-05-05T04:00:25.290Z,248.05
2023-05-05T04:01:25.372Z,248.07
2023-05-05T04:02:25.505Z,247.40
2023-05-05T04:03:25.572Z,248.79
2023-05-05T04:04:25.506Z,248.26
2023-05-05T04:05:25.488Z,245.44
2023-05-05T04:06:25.537Z,244.39
2023-05-05T04:07:25.584Z,242.97
2023-05-05T04:08:25.621Z,242.90
2023-05-05T04:09:25.631Z,240.79
2023-05-05T04:10:25.693Z,239.10
2023-05-05T04:11:25.741Z,237.27
2023-05-05T04:12:25.773Z,236.97
2023-05-05T04:13:25.878Z,235.50
2023-05-05T04:14:25.884Z,234.05
2023-05-05T04:15:25.898Z,233.15
2023-05-05T04:16:26.038Z,232.52
2023-05-05T04:17:26.044Z,231.66
2023-05-05T04:18:26.098Z,230.51
2023-05-05T04:19:26.132Z,228.89
2023-05-05T04:20:26.201Z,228.15
2023-05-05T04:21:26.238Z,225.03
2023-05-05T04:22:26.323Z,226.19
2023-05-05T04:23:26.334Z,226.01
2023-05-05T04:24:26.367Z,223.38
2023-05-05T04:25:26.420Z,222.99
2023-05-05T04:26:26.506Z,221.60
2023-05-05T04:27:26.538Z,221.79
2023-05-05T04:28:26.592Z,221.57
2023-05-05T04:29:26.647Z,220.38
2023-05-05T04:30:26.656Z,219.52
2023-05-05T04:31:26.774Z,218.07
2023-05-05T04:32:26.859Z,218.40
2023-05-05T04:33:26.840Z,217.68
2023-05-05T04:34:26.889Z,218.82
2023-05-05T04:35:26.932Z,218.39
2023-05-05T04:36:26.979Z,218.93
2023-05-05T04:37:27.032Z,219.51
2023-05-05T04:38:27.119Z,220.86
2023-05-05T04:39:27.092Z,220.03
2023-05-05T04:40:27.167Z,219.96
2023-05-05T04:41:28.904Z,220.43
2023-05-05T04:42:27.190Z,220.92
2023-05-05T04:43:27.184Z,219.79
2023-05-05T04:44:27.136Z,221.08
2023-05-05T04:45:27.140Z,221.93
2023-05-05T04:46:27.182Z,221.61
2023-05-05T04:47:27.245Z,221.92
2023-05-05T04:48:27.125Z,222.28
2023-05-05T04:49:27.117Z,221.92
2023-05-05T04:50:27.102Z,223.04
2023-05-05T04:51:27.103Z,222.90
2023-05-05T04:52:27.120Z,222.79
2023-05-05T04:53:27.102Z,223.24
2023-05-05T04:54:27.166Z,223.81
2023-05-05T04:55:27.075Z,223.70
2023-05-05T04:56:27.058Z,223.83
2023-05-05T04:57:27.069Z,223.25
2023-05-05T04:58:27.080Z,224.71
2023-05-05T04:59:27.051Z,224.49
2023-05-05T05:00:27.027Z,224.85
2023-05-05T05:01:27.108Z,225.34
2023-05-05T05:02:27.064Z,224.35
2023-05-05T05:03:27.153Z,225.92
2023-05-05T05:04:26.985Z,225.26
2023-05-05T05:05:27.002Z,225.38
2023-05-05T05:06:27.037Z,225.53
2023-05-05T05:07:26.992Z,225.89
2023-05-05T05:08:27.012Z,226.30
2023-05-05T05:09:26.995Z,225.93
2023-05-05T05:10:26.960Z,225.64
2023-05-05T05:11:26.974Z,226.78
2023-05-05T05:12:26.947Z,225.48
2023-05-05T05:13:27.006Z,226.30
2023-05-05T05:14:26.985Z,226.47
2023-05-05T05:15:26.936Z,226.60
2023-05-05T05:16:27.060Z,226.94
2023-05-05T05:17:27.013Z,227.19
2023-05-05T05:18:26.959Z,226.66
2023-05-05T05:19:26.911Z,226.25
2023-05-05T05:20:26.892Z,226.48
2023-05-05T05:21:26.930Z,227.89
2023-05-05T05:22:26.893Z,227.27
2023-05-05T05:23:26.925Z,227.37
2023-05-05T05:24:26.869Z,226.69
2023-05-05T05:25:26.883Z,226.93
2023-05-05T05:26:26.861Z,227.44
2023-05-05T05:27:26.879Z,226.31
2023-05-05T05:28:26.877Z,227.46
2023-05-05T05:29:26.847Z,227.79
2023-05-05T05:30:26.855Z,227.56
2023-05-05T05:31:26.847Z,227.13
2023-05-05T05:32:26.940Z,226.91
2023-05-05T05:33:26.991Z,225.22
2023-05-05T05:34:26.834Z,225.05
2023-05-05T05:35:26.838Z,226.30
2023-05-05T05:36:27.034Z,226.45
2023-05-05T05:37:26.905Z,226.97
2023-05-05T05:38:26.815Z,227.67
2023-05-05T05:39:26.812Z,228.84
2023-05-05T05:40:26.856Z,230.78
2023-05-05T05:41:26.768Z,230.89
2023-05-05T05:42:27.884Z,230.24
2023-05-05T05:43:26.775Z,230.31
2023-05-05T05:44:27.037Z,232.87
2023-05-05T05:45:26.740Z,233.77
2023-05-05T05:46:26.776Z,234.12
2023-05-05T05:47:26.769Z,236.23
2023-05-05T05:48:26.804Z,236.53
2023-05-05T05:49:26.714Z,238.87
2023-05-05T05:50:26.790Z,239.65
2023-05-05T05:51:26.728Z,240.82
2023-05-05T05:52:26.696Z,241.78
2023-05-05T05:53:26.699Z,242.72
2023-05-05T05:54:27.070Z,242.36
2023-05-05T05:55:26.692Z,241.58
2023-05-05T05:56:26.736Z,243.07
2023-05-05T05:57:27.037Z,242.62
2023-05-05T05:58:26.667Z,244.09
2023-05-05T05:59:26.735Z,242.73
2023-05-05T06:00:26.758Z,243.08
2023-05-05T06:01:26.632Z,242.67
2023-05-05T06:02:26.847Z,242.41
2023-05-05T06:03:26.985Z,242.80
2023-05-05T06:04:26.711Z,242.20
2023-05-05T06:05:26.622Z,242.33
2023-05-05T06:06:26.689Z,242.50
2023-05-05T06:07:26.735Z,242.26
2023-05-05T06:08:27.063Z,241.58
2023-05-05T06:09:26.849Z,240.24
2023-05-05T06:10:28.301Z,240.52
2023-05-05T06:11:26.956Z,240.45
2023-05-05T06:12:26.992Z,239.27
2023-05-05T06:13:27.588Z,239.95
2023-05-05T06:14:27.114Z,239.76
2023-05-05T06:15:27.154Z,238.13
2023-05-05T06:16:27.231Z,237.83
2023-05-05T06:17:27.241Z,238.36
2023-05-05T06:18:27.382Z,237.96
2023-05-05T06:19:27.346Z,236.77
2023-05-05T06:20:27.391Z,236.86
2023-05-05T06:21:27.519Z,237.37
2023-05-05T06:22:27.457Z,236.16
2023-05-05T06:23:27.509Z,235.77
2023-05-05T06:24:27.576Z,234.56
2023-05-05T06:25:27.580Z,234.38
2023-05-05T06:26:27.607Z,234.46
2023-05-05T06:27:27.643Z,235.63
2023-05-05T06:28:28.030Z,234.35
2023-05-05T06:29:27.726Z,235.23
2023-05-05T06:30:27.737Z,234.47
2023-05-05T06:31:27.752Z,234.21
2023-05-05T06:32:27.779Z,235.41
2023-05-05T06:33:27.722Z,234.67
2023-05-05T06:34:27.743Z,235.07
2023-05-05T06:35:27.851Z,234.58
2023-05-05T06:36:27.758Z,236.67
2023-05-05T06:37:27.767Z,235.78
2023-05-05T06:38:27.752Z,235.23
2023-05-05T06:39:27.728Z,236.09
2023-05-05T06:40:28.098Z,235.90
2023-05-05T06:41:27.825Z,236.95
2023-05-05T06:42:27.881Z,235.29
2023-05-05T06:43:27.888Z,235.80
2023-05-05T06:44:27.972Z,236.56
2023-05-05T06:45:28.009Z,236.13
2023-05-05T06:46:28.103Z,236.95
2023-05-05T06:47:28.147Z,236.09
2023-05-05T06:48:28.226Z,235.65
2023-05-05T06:49:28.253Z,236.74
2023-05-05T06:50:28.286Z,236.99
2023-05-05T06:51:28.398Z,237.19
2023-05-05T06:52:28.588Z,237.33
2023-05-05T06:53:28.469Z,236.65
2023-05-05T06:54:28.550Z,236.51
2023-05-05T06:55:29.072Z,236.84
2023-05-05T06:56:29.135Z,237.43
2023-05-05T06:57:28.724Z,236.88
2023-05-05T06:58:28.777Z,238.75
2023-05-05T06:59:28.907Z,237.69
2023-05-05T07:00:28.854Z,238.13
2023-05-05T07:01:28.927Z,237.54
2023-05-05T07:02:28.994Z,238.42
2023-05-05T07:03:29.018Z,238.41
2023-05-05T07:04:29.565Z,237.95
2023-05-05T07:05:29.142Z,237.26
2023-05-05T07:06:29.184Z,236.97
2023-05-05T07:07:29.198Z,238.80
2023-05-05T07:08:29.593Z,237.11
2023-05-05T07:09:29.299Z,238.23
2023-05-05T07:10:29.416Z,238.76
2023-05-05T07:11:29.382Z,238.96
2023-05-05T07:12:29.500Z,238.87
2023-05-05T07:13:29.838Z,238.47
2023-05-05T07:14:29.471Z,239.52
2023-05-05T07:15:29.887Z,238.50
2023-05-05T07:16:29.543Z,238.22
2023-05-05T07:17:29.623Z,239.44
2023-05-05T07:18:29.596Z,239.06
2023-05-05T07:19:29.650Z,239.93
2023-05-05T07:20:29.653Z,239.69
2023-05-05T07:21:29.680Z,238.71
2023-05-05T07:22:29.662Z,239.58
2023-05-05T07:23:29.686Z,239.23
2023-05-05T07:24:29.731Z,239.27
2023-05-05T07:25:29.680Z,239.34
2023-05-05T07:26:29.689Z,238.42
2023-05-05T07:27:29.725Z,239.19
2023-05-05T07:28:30.141Z,240.61
2023-05-05T07:29:29.752Z,239.16
2023-05-05T07:30:29.760Z,239.45
2023-05-05T07:31:29.785Z,238.90
2023-05-05T07:32:29.876Z,239.18
2023-05-05T07:33:29.762Z,240.03
2023-05-05T07:34:29.775Z,240.22
2023-05-05T07:35:30.102Z,239.59
2023-05-05T07:36:29.856Z,240.68
2023-05-05T07:37:29.853Z,241.56
2023-05-05T07:38:30.189Z,240.63
2023-05-05T07:39:30.122Z,239.66
2023-05-05T07:40:30.218Z,241.33
2023-05-05T07:41:29.918Z,240.91
2023-05-05T07:42:29.965Z,240.88
2023-05-05T07:43:29.933Z,241.98
2023-05-05T07:44:30.151Z,239.47
2023-05-05T07:45:30.086Z,239.68
2023-05-05T07:46:29.966Z,239.77
2023-05-05T07:47:30.239Z,239.12
2023-05-05T07:48:29.968Z,235.63
2023-05-05T07:49:30.073Z,236.70
2023-05-05T07:50:30.095Z,234.85
2023-05-05T07:51:30.206Z,234.34
2023-05-05T07:52:44.307Z,233.25
2023-05-05T07:53:31.124Z,230.65
2023-05-05T07:54:30.106Z,230.57
2023-05-05T07:55:30.034Z,230.03
2023-05-05T07:56:30.013Z,227.16
2023-05-05T07:57:30.026Z,226.52
2023-05-05T07:58:30.006Z,223.30
2023-05-05T07:59:29.998Z,219.89
2023-05-05T08:00:30.185Z,219.22
2023-05-05T08:01:30.053Z,218.22
2023-05-05T08:02:30.109Z,218.15
2023-05-05T08:03:30.165Z,216.64
2023-05-05T08:04:30.012Z,213.35
2023-05-05T08:05:29.981Z,212.88
2023-05-05T08:06:29.997Z,213.92
2023-05-05T08:07:29.923Z,210.37
2023-05-05T08:08:29.957Z,209.10
2023-05-05T08:09:29.969Z,208.57
2023-05-05T08:10:29.953Z,207.54
2023-05-05T08:11:29.912Z,203.62
2023-05-05T08:12:29.931Z,204.83
2023-05-05T08:13:29.917Z,204.23
2023-05-05T08:14:29.907Z,207.82
2023-05-05T08:15:29.862Z,208.40
2023-05-05T08:16:30.129Z,207.57
2023-05-05T08:17:29.959Z,208.06
2023-05-05T08:18:30.552Z,208.99
2023-05-05T08:19:29.910Z,210.17
2023-05-05T08:20:30.110Z,210.64
2023-05-05T08:21:29.889Z,210.31
2023-05-05T08:22:29.955Z,210.95
2023-05-05T08:23:29.931Z,212.86
2023-05-05T08:24:30.008Z,213.77
2023-05-05T08:25:30.095Z,213.08
2023-05-05T08:26:30.091Z,210.38
2023-05-05T08:27:30.100Z,216.20
2023-05-05T08:28:30.226Z,216.52
2023-05-05T08:29:30.627Z,217.88
2023-05-05T08:30:30.118Z,216.92
2023-05-05T08:31:30.194Z,201.50
2023-05-05T08:32:30.333Z,189.41
2023-05-05T08:33:30.223Z,200.10
2023-05-05T08:34:30.284Z,163.83
2023-05-05T08:35:30.343Z,131.42
2023-05-05T08:36:30.394Z,128.62
2023-05-05T08:37:30.605Z,112.53
2023-05-05T08:38:30.487Z,103.58
2023-05-05T08:39:30.596Z,96.89
2023-05-05T08:40:30.629Z,113.26
2023-05-05T08:41:30.681Z,92.21
2023-05-05T08:42:37.977Z,86.26
2023-05-05T08:43:32.114Z,86.36
2023-05-05T08:44:30.714Z,86.44
2023-05-05T08:45:30.790Z,89.80
2023-05-05T08:46:31.188Z,107.20
2023-05-05T08:47:30.778Z,117.59
2023-05-05T08:48:30.793Z,114.43
2023-05-05T08:49:30.698Z,113.10
2023-05-05T08:50:30.709Z,112.14
2023-05-05T08:51:30.703Z,120.38
2023-05-05T08:52:30.827Z,126.03
2023-05-05T08:53:30.888Z,138.55
2023-05-05T08:54:31.142Z,133.02
2023-05-05T08:55:30.884Z,129.91
2023-05-05T08:56:30.878Z,140.24
2023-05-05T08:57:30.918Z,144.48
2023-05-05T08:58:30.926Z,157.31
2023-05-05T08:59:30.979Z,159.47
2023-05-05T09:00:31.029Z,154.31
2023-05-05T09:01:31.097Z,146.53
2023-05-05T09:02:31.086Z,124.28
2023-05-05T09:03:31.075Z,124.21
2023-05-05T09:04:31.281Z,110.83
2023-05-05T09:05:31.107Z,102.60
2023-05-05T09:06:31.066Z,96.87
2023-05-05T09:07:31.142Z,98.20
2023-05-05T09:08:31.129Z,82.22
2023-05-05T09:09:31.138Z,70.22
2023-05-05T09:10:31.158Z,74.88
2023-05-05T09:11:31.185Z,73.28
2023-05-05T09:12:31.717Z,77.83
2023-05-05T09:13:31.623Z,53.98
2023-05-05T09:14:31.229Z,55.25
2023-05-05T09:15:31.280Z,33.36
2023-05-05T09:16:31.342Z,24.99
2023-05-05T09:17:31.368Z,17.91
2023-05-05T09:18:31.657Z,1.84
2023-05-05T09:19:31.620Z,12.11
2023-05-05T09:20:31.695Z,20.35
2023-05-05T09:21:31.515Z,25.72
2023-05-05T09:22:31.560Z,29.17
2023-05-05T09:23:31.685Z,56.83
2023-05-05T09:24:31.653Z,81.41
2023-05-05T09:25:31.716Z,94.95
2023-05-05T09:26:31.755Z,105.33
2023-05-05T09:27:32.108Z,101.87
2023-05-05T09:28:32.118Z,96.44
2023-05-05T09:29:31.936Z,95.47
2023-05-05T09:30:32.059Z,96.20
2023-05-05T09:31:32.094Z,86.89
2023-05-05T09:32:32.157Z,97.34
2023-05-05T09:33:32.178Z,107.14
2023-05-05T09:34:32.149Z,94.71
2023-05-05T09:35:32.237Z,109.22
2023-05-05T09:36:33.181Z,98.04
2023-05-05T09:37:32.304Z,101.78
2023-05-05T09:38:32.658Z,111.75
2023-05-05T09:39:32.314Z,99.63
2023-05-05T09:40:32.344Z,103.63
2023-05-05T09:41:32.405Z,97.05
2023-05-05T09:42:32.410Z,106.37
2023-05-05T09:43:32.654Z,117.28
2023-05-05T09:44:32.425Z,126.60
2023-05-05T09:45:32.457Z,127.86
2023-05-05T09:46:32.542Z,90.53
2023-05-05T09:47:32.955Z,56.57
2023-05-05T09:48:32.694Z,53.41
2023-05-05T09:49:32.531Z,53.98
2023-05-05T09:50:32.664Z,49.08
2023-05-05T09:51:32.586Z,45.37
2023-05-05T09:52:32.691Z,66.08
2023-05-05T09:53:33.141Z,82.57
2023-05-05T09:54:32.709Z,88.89
2023-05-05T09:55:32.744Z,90.28
2023-05-05T09:56:32.701Z,87.90
2023-05-05T09:57:32.787Z,81.23
2023-05-05T09:58:32.806Z,77.44
2023-05-05T09:59:32.853Z,40.75
2023-05-05T10:00:32.892Z,38.41
2023-05-05T10:01:32.956Z,52.31
2023-05-05T10:02:33.087Z,43.13
2023-05-05T10:03:33.038Z,68.00
2023-05-05T10:04:33.163Z,80.69
2023-05-05T10:05:33.149Z,79.77
2023-05-05T10:06:33.209Z,57.04
2023-05-05T10:07:33.263Z,44.37
2023-05-05T10:08:33.388Z,47.90
2023-05-05T10:09:33.337Z,41.18
2023-05-05T10:10:33.405Z,42.23
2023-05-05T10:11:33.457Z,63.96
2023-05-05T10:12:33.536Z,79.91
2023-05-05T10:13:33.557Z,89.82
2023-05-05T10:14:33.629Z,94.09
2023-05-05T10:15:33.808Z,109.38
2023-05-05T10:16:34.205Z,118.60
2023-05-05T10:17:33.894Z,111.23
2023-05-05T10:18:33.920Z,94.92
2023-05-05T10:19:33.955Z,82.83
2023-05-05T10:20:34.020Z,87.21
2023-05-05T10:21:34.090Z,66.83
2023-05-05T10:22:34.135Z,53.50
2023-05-05T10:23:34.123Z,62.84
2023-05-05T10:24:34.278Z,79.89
2023-05-05T10:25:34.266Z,99.27
2023-05-05T10:26:34.343Z,118.15
2023-05-05T10:27:34.376Z,126.87
2023-05-05T10:28:34.452Z,119.89
2023-05-05T10:29:34.505Z,125.68
2023-05-05T10:30:34.499Z,130.74
2023-05-05T10:31:34.619Z,128.32
2023-05-05T10:33:35.752Z,129.69
2023-05-05T10:34:34.657Z,132.32
2023-05-05T10:35:34.581Z,133.86
2023-05-05T10:36:34.595Z,137.87
2023-05-05T10:37:34.672Z,147.80
2023-05-05T10:38:34.548Z,150.75
2023-05-05T10:39:34.558Z,148.73
2023-05-05T10:40:34.538Z,158.71
2023-05-05T10:41:34.655Z,166.92
2023-05-05T10:42:34.538Z,169.37
2023-05-05T10:43:34.501Z,179.93
2023-05-05T10:44:34.497Z,183.64
2023-05-05T10:45:34.654Z,185.90
2023-05-05T10:46:34.552Z,187.06
2023-05-05T10:47:34.538Z,188.28
2023-05-05T10:48:34.506Z,188.31
2023-05-05T10:49:34.488Z,193.19
2023-05-05T10:50:34.489Z,198.27
2023-05-05T10:51:40.354Z,195.74
2023-05-05T10:52:35.672Z,195.83
2023-05-05T10:53:34.465Z,196.44
2023-05-05T10:54:35.766Z,197.08
2023-05-05T10:55:34.675Z,195.77
2023-05-05T10:56:34.453Z,202.76
2023-05-05T10:57:34.690Z,204.11
2023-05-05T10:58:40.804Z,204.93
2023-05-05T10:59:35.425Z,205.07
2023-05-05T11:00:34.394Z,206.05
2023-05-05T11:01:34.627Z,207.22
2023-05-05T11:02:34.714Z,205.71
2023-05-05T11:03:34.424Z,204.38
2023-05-05T11:04:34.366Z,213.57
2023-05-05T11:05:34.391Z,213.83
2023-05-05T11:06:34.389Z,215.78
2023-05-05T11:07:34.705Z,216.25
2023-05-05T11:08:34.350Z,215.45
2023-05-05T11:09:34.327Z,218.49
2023-05-05T11:10:34.476Z,220.95
2023-05-05T11:11:34.318Z,222.43
2023-05-05T11:12:36.067Z,225.61
2023-05-05T11:13:34.310Z,222.99
2023-05-05T11:14:34.669Z,221.88
2023-05-05T11:15:34.320Z,224.61
2023-05-05T11:16:34.358Z,207.63
2023-05-05T11:17:34.345Z,217.35
2023-05-05T11:18:34.263Z,222.95
2023-05-05T11:19:34.715Z,231.35
2023-05-05T11:20:34.249Z,236.32
2023-05-05T11:21:34.687Z,239.54
2023-05-05T11:22:34.230Z,238.68
2023-05-05T11:23:34.251Z,237.54
2023-05-05T11:24:34.276Z,234.51
2023-05-05T11:25:34.239Z,234.76
2023-05-05T11:26:34.221Z,230.23
2023-05-05T11:27:34.253Z,230.98
2023-05-05T11:28:34.280Z,227.24
2023-05-05T11:29:34.245Z,224.66
2023-05-05T11:30:34.218Z,224.05
2023-05-05T11:31:34.247Z,220.38
2023-05-05T11:32:34.320Z,216.99
2023-05-05T11:33:34.230Z,216.06
2023-05-05T11:34:34.160Z,212.66
2023-05-05T11:35:34.164Z,214.92
2023-05-05T11:36:34.204Z,208.16
2023-05-05T11:37:34.139Z,207.16
2023-05-05T11:38:34.207Z,203.54
2023-05-05T11:39:34.153Z,203.69
2023-05-05T11:40:34.165Z,197.56
2023-05-05T11:41:34.108Z,197.66
2023-05-05T11:42:34.114Z,194.14
2023-05-05T11:43:34.083Z,189.13
2023-05-05T11:44:34.173Z,184.16
2023-05-05T11:45:34.139Z,181.06
2023-05-05T11:46:34.080Z,185.67
2023-05-05T11:47:34.109Z,178.13
2023-05-05T11:48:34.059Z,174.57
2023-05-05T11:49:34.092Z,179.07
2023-05-05T11:50:34.068Z,174.70
2023-05-05T11:51:34.054Z,175.59
2023-05-05T11:52:34.042Z,176.14
2023-05-05T11:53:34.029Z,170.58
2023-05-05T11:54:34.057Z,171.27
2023-05-05T11:55:34.004Z,170.70
2023-05-05T11:56:34.009Z,169.85
2023-05-05T11:57:33.962Z,176.22
2023-05-05T11:58:34.026Z,180.49
2023-05-05T11:59:33.959Z,185.01
2023-05-05T12:00:34.071Z,186.90
2023-05-05T12:01:33.991Z,190.69
2023-05-05T12:02:34.040Z,193.82
2023-05-05T12:03:34.058Z,193.56
2023-05-05T12:04:33.994Z,194.37
2023-05-05T12:05:36.400Z,196.68
2023-05-05T12:06:33.915Z,196.13
2023-05-05T12:07:33.928Z,159.20
2023-05-05T12:08:33.931Z,135.10
2023-05-05T12:09:33.894Z,156.88
2023-05-05T12:10:33.886Z,164.96
2023-05-05T12:11:33.907Z,170.36
2023-05-05T12:12:33.931Z,171.42
2023-05-05T12:13:33.916Z,162.47
2023-05-05T12:14:33.923Z,151.75
2023-05-05T12:15:33.863Z,143.52
2023-05-05T12:16:33.925Z,141.77
2023-05-05T12:17:33.874Z,133.52
2023-05-05T12:18:33.847Z,126.34
2023-05-05T12:19:33.838Z,130.21
2023-05-05T12:20:33.801Z,111.92
2023-05-05T12:21:33.792Z,113.87
2023-05-05T12:22:33.825Z,122.86
2023-05-05T12:23:33.826Z,118.37
2023-05-05T12:24:33.801Z,117.54
2023-05-05T12:25:33.785Z,93.58
2023-05-05T12:26:33.791Z,76.56
2023-05-05T12:27:33.764Z,87.06
2023-05-05T12:28:33.764Z,76.23
2023-05-05T12:29:33.762Z,77.19
2023-05-05T12:30:33.807Z,59.42
2023-05-05T12:31:33.753Z,64.03
2023-05-05T12:32:33.784Z,53.87